Charter Quote
Worldwide +1-877-727-2538 Call
Select Language Lang
SAFETY RELIABILITY EXPERIENCE

Private Jet Charter Services - Wuxi Airport (ZSWX)

Paramount Business Jets offers private jet charter flights and luxury airliner charters to and from Wuxi Airport.

AIRPORT INFORMATION
ICAOZSWX
LOCATIONWuxi, China
FACILITY TYPEAIRPORT

At Paramount Business Jets you can hire chartered private jets to and from Wuxi Airport with as little as 4 hours of notice. All flights booked via Paramount Business Jets are operated by certified direct air carriers that meet and exceed the FAA part 135 and 121 protocol or a foreign equivalent safety authority. Furthermore, Paramount Business Jets subscribes to ARGUS for their third party safety checks of operators, aircraft, and crews prior each and every flight to and from Wuxi Airport and worldwide.

  • Quote a trip using Wuxi Airport or call us 24/7 - 365 days a year at +1-877-727-2538.
Questions? Call +1-877-727-2538

METAR Weather Data at Wuxi Airport, ZSWX

STATIONZSWX
OBSERVEDThu Apr 18, 01:00 UTC
NOWSun Nov 17, 04:57 UTC
AGE5115:57 hr ago
WINDSSE at 4 mph
VISIBILITY13 miles
METARZSWX 180100Z 15002MPS 090V220 8000 NSC 23/15 Q1010 NOSIG

Call us on +1-877-727-2538 (24 Hours) to Hire a Private Jet or Get a Quick Quote.

Find Airports Near any Location

Processing
...